sensor_id;sensor_type;location;lat;lon;timestamp;P1;durP1;ratioP1;P2;durP2;ratioP2
2011;SDS011;1009;51.436;6.972;2023-04-01T00:01:43;7.20;;;1.97;;
2011;SDS011;1009;51.436;6.972;2023-04-01T00:04:10;7.03;;;3.17;;
2011;SDS011;1009;51.436;6.972;2023-04-01T00:06:37;4.43;;;1.60;;
2011;SDS011;1009;51.436;6.972;2023-04-01T00:09:04;6.73;;;1.97;;
2011;SDS011;1009;51.436;6.972;2023-04-01T00:11:30;6.03;;;1.93;;
2011;SDS011;1009;51.436;6.972;2023-04-01T00:14:07;4.30;;;1.60;;
2011;SDS011;1009;51.436;6.972;2023-04-01T00:16:35;4.40;;;2.03;;
2011;SDS011;1009;51.436;6.972;2023-04-01T00:19:03;2.40;;;1.60;;
2011;SDS011;1009;51.436;6.972;2023-04-01T00:21:32;2.83;;;1.70;;
2011;SDS011;1009;51.436;6.972;2023-04-01T00:23:59;6.43;;;1.60;;
2011;SDS011;1009;51.436;6.972;2023-04-01T00:26:26;4.20;;;1.50;;
2011;SDS011;1009;51.436;6.972;2023-04-01T00:28:52;8.30;;;1.90;;
2011;SDS011;1009;51.436;6.972;2023-04-01T00:31:21;4.70;;;1.77;;
2011;SDS011;1009;51.436;6.972;2023-04-01T00:33:50;3.53;;;1.40;;
2011;SDS011;1009;51.436;6.972;2023-04-01T00:36:18;7.57;;;1.60;;
2011;SDS011;1009;51.436;6.972;2023-04-01T00:38:48;3.50;;;1.80;;
2011;SDS011;1009;51.436;6.972;2023-04-01T00:41:16;3.20;;;1.67;;
2011;SDS011;1009;51.436;6.972;2023-04-01T00:43:45;4.87;;;2.13;;
2011;SDS011;1009;51.436;6.972;2023-04-01T00:46:13;4.97;;;1.57;;
2011;SDS011;1009;51.436;6.972;2023-04-01T00:48:42;4.50;;;1.77;;
2011;SDS011;1009;51.436;6.972;2023-04-01T00:51:13;3.93;;;1.77;;
2011;SDS011;1009;51.436;6.972;2023-04-01T00:53:43;2.70;;;1.37;;
2011;SDS011;1009;51.436;6.972;2023-04-01T00:56:13;4.23;;;1.47;;
2011;SDS011;1009;51.436;6.972;2023-04-01T00:58:44;8.00;;;1.77;;
2011;SDS011;1009;51.436;6.972;2023-04-01T01:01:15;4.77;;;1.87;;
2011;SDS011;1009;51.436;6.972;2023-04-01T01:03:43;4.30;;;1.67;;
2011;SDS011;1009;51.436;6.972;2023-04-01T01:06:11;4.80;;;1.23;;
2011;SDS011;1009;51.436;6.972;2023-04-01T01:09:03;2.43;;;1.30;;
2011;SDS011;1009;51.436;6.972;2023-04-01T01:11:40;6.60;;;2.03;;
2011;SDS011;1009;51.436;6.972;2023-04-01T01:14:11;2.17;;;1.23;;
2011;SDS011;1009;51.436;6.972;2023-04-01T01:16:48;2.80;;;1.27;;
2011;SDS011;1009;51.436;6.972;2023-04-01T01:19:32;2.37;;;1.40;;
2011;SDS011;1009;51.436;6.972;2023-04-01T01:22:32;2.97;;;1.20;;
2011;SDS011;1009;51.436;6.972;2023-04-01T01:25:13;3.00;;;1.70;;
2011;SDS011;1009;51.436;6.972;2023-04-01T01:27:49;1.53;;;1.20;;
2011;SDS011;1009;51.436;6.972;2023-04-01T01:30:35;5.93;;;1.60;;
2011;SDS011;1009;51.436;6.972;2023-04-01T01:33:13;2.50;;;1.40;;
2011;SDS011;1009;51.436;6.972;2023-04-01T01:35:51;1.87;;;1.70;;
2011;SDS011;1009;51.436;6.972;2023-04-01T01:38:22;3.93;;;1.40;;
2011;SDS011;1009;51.436;6.972;2023-04-01T01:40:52;4.67;;;1.53;;
2011;SDS011;1009;51.436;6.972;2023-04-01T01:43:22;3.03;;;1.20;;
2011;SDS011;1009;51.436;6.972;2023-04-01T01:45:52;2.10;;;1.20;;
2011;SDS011;1009;51.436;6.972;2023-04-01T01:48:23;3.53;;;1.47;;
2011;SDS011;1009;51.436;6.972;2023-04-01T01:50:53;4.60;;;1.30;;
2011;SDS011;1009;51.436;6.972;2023-04-01T01:53:20;3.53;;;1.20;;
2011;SDS011;1009;51.436;6.972;2023-04-01T01:55:47;1.67;;;1.30;;
2011;SDS011;1009;51.436;6.972;2023-04-01T01:58:16;2.43;;;1.43;;
2011;SDS011;1009;51.436;6.972;2023-04-01T02:00:48;4.03;;;1.30;;
2011;SDS011;1009;51.436;6.972;2023-04-01T02:03:19;2.53;;;1.03;;
2011;SDS011;1009;51.436;6.972;2023-04-01T02:05:48;3.53;;;1.60;;
2011;SDS011;1009;51.436;6.972;2023-04-01T02:08:20;1.67;;;1.23;;
2011;SDS011;1009;51.436;6.972;2023-04-01T02:10:53;3.70;;;1.27;;
2011;SDS011;1009;51.436;6.972;2023-04-01T02:13:24;4.93;;;1.60;;
2011;SDS011;1009;51.436;6.972;2023-04-01T02:15:56;2.10;;;1.30;;
2011;SDS011;1009;51.436;6.972;2023-04-01T02:18:26;5.13;;;1.40;;
2011;SDS011;1009;51.436;6.972;2023-04-01T02:20:56;2.83;;;1.40;;
2011;SDS011;1009;51.436;6.972;2023-04-01T02:23:28;2.80;;;1.00;;
2011;SDS011;1009;51.436;6.972;2023-04-01T02:25:57;2.10;;;1.47;;
2011;SDS011;1009;51.436;6.972;2023-04-01T02:28:26;2.50;;;1.00;;
2011;SDS011;1009;51.436;6.972;2023-04-01T02:30:55;2.13;;;1.00;;
2011;SDS011;1009;51.436;6.972;2023-04-01T02:33:23;1.73;;;1.17;;
2011;SDS011;1009;51.436;6.972;2023-04-01T02:35:50;3.00;;;1.70;;
2011;SDS011;1009;51.436;6.972;2023-04-01T02:38:17;1.67;;;1.43;;
2011;SDS011;1009;51.436;6.972;2023-04-01T02:40:46;5.70;;;1.60;;
2011;SDS011;1009;51.436;6.972;2023-04-01T02:43:14;3.87;;;1.77;;
2011;SDS011;1009;51.436;6.972;2023-04-01T02:45:42;2.00;;;1.20;;
2011;SDS011;1009;51.436;6.972;2023-04-01T02:48:09;3.10;;;1.67;;
2011;SDS011;1009;51.436;6.972;2023-04-01T02:50:38;3.97;;;1.40;;
2011;SDS011;1009;51.436;6.972;2023-04-01T02:53:05;4.97;;;1.30;;
2011;SDS011;1009;51.436;6.972;2023-04-01T02:55:32;2.10;;;1.50;;
2011;SDS011;1009;51.436;6.972;2023-04-01T02:58:00;3.83;;;1.70;;
2011;SDS011;1009;51.436;6.972;2023-04-01T03:00:27;4.40;;;1.40;;
2011;SDS011;1009;51.436;6.972;2023-04-01T03:02:54;7.03;;;1.47;;
2011;SDS011;1009;51.436;6.972;2023-04-01T03:05:21;3.30;;;2.10;;
2011;SDS011;1009;51.436;6.972;2023-04-01T03:07:48;2.53;;;1.40;;
2011;SDS011;1009;51.436;6.972;2023-04-01T03:10:15;2.50;;;1.60;;
2011;SDS011;1009;51.436;6.972;2023-04-01T03:12:42;2.97;;;1.50;;
2011;SDS011;1009;51.436;6.972;2023-04-01T03:15:10;4.10;;;1.47;;
2011;SDS011;1009;51.436;6.972;2023-04-01T03:17:39;4.40;;;1.60;;
2011;SDS011;1009;51.436;6.972;2023-04-01T03:20:07;2.90;;;1.90;;
2011;SDS011;1009;51.436;6.972;2023-04-01T03:22:35;2.17;;;1.60;;
2011;SDS011;1009;51.436;6.972;2023-04-01T03:25:02;4.67;;;2.13;;
2011;SDS011;1009;51.436;6.972;2023-04-01T03:27:30;2.40;;;1.90;;
2011;SDS011;1009;51.436;6.972;2023-04-01T03:29:56;6.43;;;2.20;;
2011;SDS011;1009;51.436;6.972;2023-04-01T03:32:25;5.13;;;1.90;;
2011;SDS011;1009;51.436;6.972;2023-04-01T03:34:52;2.13;;;1.70;;
2011;SDS011;1009;51.436;6.972;2023-04-01T03:37:19;2.33;;;2.13;;
2011;SDS011;1009;51.436;6.972;2023-04-01T03:39:46;2.20;;;2.00;;
2011;SDS011;1009;51.436;6.972;2023-04-01T03:42:12;2.30;;;1.73;;
2011;SDS011;1009;51.436;6.972;2023-04-01T03:44:39;3.70;;;2.30;;
2011;SDS011;1009;51.436;6.972;2023-04-01T03:47:06;2.00;;;1.90;;
2011;SDS011;1009;51.436;6.972;2023-04-01T03:49:35;4.80;;;2.00;;
2011;SDS011;1009;51.436;6.972;2023-04-01T03:52:07;2.10;;;1.80;;
2011;SDS011;1009;51.436;6.972;2023-04-01T03:54:35;3.30;;;2.13;;
2011;SDS011;1009;51.436;6.972;2023-04-01T03:57:02;3.10;;;2.80;;
2011;SDS011;1009;51.436;6.972;2023-04-01T03:59:29;3.63;;;2.43;;
2011;SDS011;1009;51.436;6.972;2023-04-01T04:01:55;3.70;;;2.50;;
2011;SDS011;1009;51.436;6.972;2023-04-01T04:04:22;3.17;;;2.70;;
2011;SDS011;1009;51.436;6.972;2023-04-01T04:06:50;2.83;;;2.50;;
2011;SDS011;1009;51.436;6.972;2023-04-01T04:09:17;3.90;;;2.13;;
2011;SDS011;1009;51.436;6.972;2023-04-01T04:11:44;2.97;;;2.27;;
2011;SDS011;1009;51.436;6.972;2023-04-01T04:14:11;2.73;;;2.40;;
2011;SDS011;1009;51.436;6.972;2023-04-01T04:16:38;8.03;;;2.30;;
2011;SDS011;1009;51.436;6.972;2023-04-01T04:19:04;3.80;;;2.70;;
2011;SDS011;1009;51.436;6.972;2023-04-01T04:21:31;2.40;;;2.20;;
2011;SDS011;1009;51.436;6.972;2023-04-01T04:24:00;2.73;;;2.30;;
2011;SDS011;1009;51.436;6.972;2023-04-01T04:26:28;2.30;;;2.10;;
2011;SDS011;1009;51.436;6.972;2023-04-01T04:28:55;5.50;;;2.10;;
2011;SDS011;1009;51.436;6.972;2023-04-01T04:31:23;4.23;;;2.20;;
2011;SDS011;1009;51.436;6.972;2023-04-01T04:33:51;2.80;;;2.10;;
2011;SDS011;1009;51.436;6.972;2023-04-01T04:36:18;3.73;;;2.83;;
2011;SDS011;1009;51.436;6.972;2023-04-01T04:38:46;3.30;;;2.20;;
2011;SDS011;1009;51.436;6.972;2023-04-01T04:41:15;4.23;;;2.23;;
2011;SDS011;1009;51.436;6.972;2023-04-01T04:43:48;2.57;;;2.27;;
2011;SDS011;1009;51.436;6.972;2023-04-01T04:46:15;4.13;;;2.27;;
2011;SDS011;1009;51.436;6.972;2023-04-01T04:48:48;4.30;;;2.17;;
2011;SDS011;1009;51.436;6.972;2023-04-01T04:51:20;2.93;;;2.67;;
2011;SDS011;1009;51.436;6.972;2023-04-01T04:53:50;2.97;;;2.47;;
2011;SDS011;1009;51.436;6.972;2023-04-01T04:56:18;3.57;;;3.00;;
2011;SDS011;1009;51.436;6.972;2023-04-01T04:58:46;3.93;;;2.97;;
2011;SDS011;1009;51.436;6.972;2023-04-01T05:01:14;3.10;;;2.80;;
2011;SDS011;1009;51.436;6.972;2023-04-01T05:03:41;3.17;;;2.87;;
2011;SDS011;1009;51.436;6.972;2023-04-01T05:06:09;4.43;;;3.03;;
2011;SDS011;1009;51.436;6.972;2023-04-01T05:08:39;3.80;;;3.50;;
2011;SDS011;1009;51.436;6.972;2023-04-01T05:11:07;3.43;;;2.70;;
2011;SDS011;1009;51.436;6.972;2023-04-01T05:13:38;3.57;;;2.80;;
2011;SDS011;1009;51.436;6.972;2023-04-01T05:16:07;3.50;;;3.10;;
2011;SDS011;1009;51.436;6.972;2023-04-01T05:18:35;4.20;;;2.60;;
2011;SDS011;1009;51.436;6.972;2023-04-01T05:21:02;4.60;;;3.20;;
2011;SDS011;1009;51.436;6.972;2023-04-01T05:23:30;5.23;;;3.27;;
2011;SDS011;1009;51.436;6.972;2023-04-01T05:25:58;3.80;;;2.97;;
2011;SDS011;1009;51.436;6.972;2023-04-01T05:28:25;4.13;;;3.30;;
2011;SDS011;1009;51.436;6.972;2023-04-01T05:30:53;5.50;;;4.10;;
2011;SDS011;1009;51.436;6.972;2023-04-01T05:33:20;4.60;;;3.90;;
2011;SDS011;1009;51.436;6.972;2023-04-01T05:35:46;4.97;;;4.20;;
2011;SDS011;1009;51.436;6.972;2023-04-01T05:38:13;3.80;;;3.40;;
2011;SDS011;1009;51.436;6.972;2023-04-01T05:40:40;6.20;;;4.13;;
2011;SDS011;1009;51.436;6.972;2023-04-01T05:43:07;4.43;;;4.03;;
2011;SDS011;1009;51.436;6.972;2023-04-01T05:45:34;4.10;;;3.70;;
2011;SDS011;1009;51.436;6.972;2023-04-01T05:48:02;3.90;;;3.50;;
2011;SDS011;1009;51.436;6.972;2023-04-01T05:50:29;4.83;;;4.30;;
2011;SDS011;1009;51.436;6.972;2023-04-01T05:52:56;4.10;;;3.43;;
2011;SDS011;1009;51.436;6.972;2023-04-01T05:55:22;4.00;;;3.63;;
2011;SDS011;1009;51.436;6.972;2023-04-01T05:57:49;4.50;;;3.87;;
2011;SDS011;1009;51.436;6.972;2023-04-01T06:00:16;4.70;;;2.93;;
2011;SDS011;1009;51.436;6.972;2023-04-01T06:02:44;3.90;;;3.43;;
2011;SDS011;1009;51.436;6.972;2023-04-01T06:05:14;4.23;;;3.83;;
2011;SDS011;1009;51.436;6.972;2023-04-01T06:07:43;3.53;;;2.80;;
2011;SDS011;1009;51.436;6.972;2023-04-01T06:10:12;4.27;;;3.37;;
2011;SDS011;1009;51.436;6.972;2023-04-01T06:12:42;5.47;;;4.33;;
2011;SDS011;1009;51.436;6.972;2023-04-01T06:15:20;3.97;;;3.07;;
2011;SDS011;1009;51.436;6.972;2023-04-01T06:18:02;5.23;;;4.30;;
2011;SDS011;1009;51.436;6.972;2023-04-01T06:20:53;4.77;;;3.53;;
2011;SDS011;1009;51.436;6.972;2023-04-01T06:23:33;4.00;;;3.60;;
2011;SDS011;1009;51.436;6.972;2023-04-01T06:26:22;4.50;;;3.53;;
2011;SDS011;1009;51.436;6.972;2023-04-01T06:28:59;4.40;;;4.00;;
2011;SDS011;1009;51.436;6.972;2023-04-01T06:31:56;5.23;;;3.70;;
2011;SDS011;1009;51.436;6.972;2023-04-01T06:34:44;4.27;;;3.87;;
2011;SDS011;1009;51.436;6.972;2023-04-01T06:37:50;4.63;;;4.13;;
2011;SDS011;1009;51.436;6.972;2023-04-01T06:40:36;7.57;;;4.03;;
2011;SDS011;1009;51.436;6.972;2023-04-01T06:43:21;4.13;;;3.50;;
2011;SDS011;1009;51.436;6.972;2023-04-01T06:45:54;7.57;;;3.90;;
2011;SDS011;1009;51.436;6.972;2023-04-01T06:48:34;4.70;;;4.17;;
2011;SDS011;1009;51.436;6.972;2023-04-01T06:51:16;5.27;;;4.20;;
2011;SDS011;1009;51.436;6.972;2023-04-01T06:53:53;5.63;;;3.70;;
2011;SDS011;1009;51.436;6.972;2023-04-01T06:56:23;7.77;;;3.70;;
2011;SDS011;1009;51.436;6.972;2023-04-01T06:58:53;6.03;;;4.17;;
2011;SDS011;1009;51.436;6.972;2023-04-01T07:01:23;4.00;;;3.13;;
2011;SDS011;1009;51.436;6.972;2023-04-01T07:03:55;4.20;;;3.20;;
2011;SDS011;1009;51.436;6.972;2023-04-01T07:06:26;4.50;;;4.10;;
2011;SDS011;1009;51.436;6.972;2023-04-01T07:08:58;8.30;;;3.83;;
2011;SDS011;1009;51.436;6.972;2023-04-01T07:11:29;3.90;;;3.53;;
2011;SDS011;1009;51.436;6.972;2023-04-01T07:13:59;4.97;;;4.47;;
2011;SDS011;1009;51.436;6.972;2023-04-01T07:16:29;4.80;;;3.70;;
2011;SDS011;1009;51.436;6.972;2023-04-01T07:18:59;5.50;;;3.93;;
2011;SDS011;1009;51.436;6.972;2023-04-01T07:21:30;4.80;;;3.47;;
2011;SDS011;1009;51.436;6.972;2023-04-01T07:24:04;4.10;;;3.70;;
2011;SDS011;1009;51.436;6.972;2023-04-01T07:26:35;4.23;;;3.77;;
2011;SDS011;1009;51.436;6.972;2023-04-01T07:29:04;4.90;;;3.83;;
2011;SDS011;1009;51.436;6.972;2023-04-01T07:31:42;6.07;;;4.13;;
2011;SDS011;1009;51.436;6.972;2023-04-01T07:34:19;7.60;;;5.13;;
2011;SDS011;1009;51.436;6.972;2023-04-01T07:36:52;6.67;;;5.73;;
2011;SDS011;1009;51.436;6.972;2023-04-01T07:39:30;7.37;;;6.63;;
2011;SDS011;1009;51.436;6.972;2023-04-01T07:42:08;9.43;;;6.90;;
2011;SDS011;1009;51.436;6.972;2023-04-01T07:44:48;6.53;;;5.90;;
2011;SDS011;1009;51.436;6.972;2023-04-01T07:47:25;7.13;;;5.27;;
2011;SDS011;1009;51.436;6.972;2023-04-01T07:50:11;5.83;;;5.10;;
2011;SDS011;1009;51.436;6.972;2023-04-01T07:52:45;6.50;;;5.80;;
2011;SDS011;1009;51.436;6.972;2023-04-01T07:55:21;7.37;;;6.40;;
2011;SDS011;1009;51.436;6.972;2023-04-01T07:57:57;8.20;;;7.17;;
2011;SDS011;1009;51.436;6.972;2023-04-01T08:00:31;8.10;;;6.80;;
2011;SDS011;1009;51.436;6.972;2023-04-01T08:03:15;7.67;;;6.90;;
2011;SDS011;1009;51.436;6.972;2023-04-01T08:05:55;10.57;;;9.30;;
2011;SDS011;1009;51.436;6.972;2023-04-01T08:08:29;9.40;;;8.40;;
2011;SDS011;1009;51.436;6.972;2023-04-01T08:11:11;11.30;;;9.07;;
2011;SDS011;1009;51.436;6.972;2023-04-01T08:13:48;10.20;;;8.60;;
2011;SDS011;1009;51.436;6.972;2023-04-01T08:16:23;11.13;;;9.90;;
2011;SDS011;1009;51.436;6.972;2023-04-01T08:18:59;13.43;;;10.20;;
2011;SDS011;1009;51.436;6.972;2023-04-01T08:21:38;13.80;;;11.63;;
2011;SDS011;1009;51.436;6.972;2023-04-01T08:24:11;11.97;;;9.70;;
2011;SDS011;1009;51.436;6.972;2023-04-01T08:26:46;13.60;;;12.10;;
2011;SDS011;1009;51.436;6.972;2023-04-01T08:29:18;15.30;;;11.57;;
2011;SDS011;1009;51.436;6.972;2023-04-01T08:31:48;12.80;;;10.60;;
2011;SDS011;1009;51.436;6.972;2023-04-01T08:34:20;14.97;;;9.70;;
2011;SDS011;1009;51.436;6.972;2023-04-01T08:36:50;14.33;;;11.23;;
2011;SDS011;1009;51.436;6.972;2023-04-01T08:39:22;13.03;;;11.43;;
2011;SDS011;1009;51.436;6.972;2023-04-01T08:42:01;14.40;;;11.63;;
2011;SDS011;1009;51.436;6.972;2023-04-01T08:47:52;9.33;;;8.30;;
2011;SDS011;1009;51.436;6.972;2023-04-01T08:50:44;9.03;;;8.07;;
2011;SDS011;1009;51.436;6.972;2023-04-01T08:53:36;13.20;;;9.60;;
2011;SDS011;1009;51.436;6.972;2023-04-01T08:56:13;12.67;;;10.97;;
2011;SDS011;1009;51.436;6.972;2023-04-01T08:59:01;12.50;;;10.03;;
2011;SDS011;1009;51.436;6.972;2023-04-01T09:01:58;12.10;;;10.30;;
2011;SDS011;1009;51.436;6.972;2023-04-01T09:04:50;12.93;;;11.53;;
2011;SDS011;1009;51.436;6.972;2023-04-01T09:07:42;13.60;;;10.30;;
2011;SDS011;1009;51.436;6.972;2023-04-01T09:10:21;13.03;;;10.73;;
2011;SDS011;1009;51.436;6.972;2023-04-01T09:13:10;13.47;;;11.43;;
2011;SDS011;1009;51.436;6.972;2023-04-01T09:15:53;16.17;;;10.67;;
2011;SDS011;1009;51.436;6.972;2023-04-01T09:21:37;16.30;;;11.50;;
2011;SDS011;1009;51.436;6.972;2023-04-01T09:24:31;15.00;;;10.63;;
2011;SDS011;1009;51.436;6.972;2023-04-01T09:27:09;21.77;;;12.83;;
2011;SDS011;1009;51.436;6.972;2023-04-01T09:36:13;16.10;;;10.70;;
2011;SDS011;1009;51.436;6.972;2023-04-01T09:38:54;14.93;;;11.07;;
2011;SDS011;1009;51.436;6.972;2023-04-01T09:41:27;16.50;;;11.47;;
2011;SDS011;1009;51.436;6.972;2023-04-01T09:44:03;19.43;;;11.87;;
2011;SDS011;1009;51.436;6.972;2023-04-01T09:46:43;13.70;;;10.50;;
2011;SDS011;1009;51.436;6.972;2023-04-01T09:52:14;17.43;;;13.60;;
2011;SDS011;1009;51.436;6.972;2023-04-01T09:54:56;18.10;;;12.37;;
2011;SDS011;1009;51.436;6.972;2023-04-01T09:57:41;18.77;;;13.03;;
2011;SDS011;1009;51.436;6.972;2023-04-01T10:00:48;15.60;;;12.37;;
2011;SDS011;1009;51.436;6.972;2023-04-01T10:06:52;17.47;;;13.13;;
2011;SDS011;1009;51.436;6.972;2023-04-01T10:10:02;16.67;;;13.63;;
2011;SDS011;1009;51.436;6.972;2023-04-01T10:12:50;17.70;;;14.40;;
2011;SDS011;1009;51.436;6.972;2023-04-01T10:18:51;15.03;;;11.87;;
2011;SDS011;1009;51.436;6.972;2023-04-01T10:21:43;16.80;;;13.10;;
2011;SDS011;1009;51.436;6.972;2023-04-01T10:27:29;15.23;;;12.20;;
2011;SDS011;1009;51.436;6.972;2023-04-01T10:30:20;17.13;;;13.13;;
2011;SDS011;1009;51.436;6.972;2023-04-01T10:33:27;17.70;;;14.47;;
2011;SDS011;1009;51.436;6.972;2023-04-01T10:36:31;19.50;;;12.80;;
2011;SDS011;1009;51.436;6.972;2023-04-01T10:39:31;20.73;;;12.93;;
2011;SDS011;1009;51.436;6.972;2023-04-01T10:48:07;18.33;;;12.47;;
2011;SDS011;1009;51.436;6.972;2023-04-01T10:56:55;21.00;;;12.50;;
2011;SDS011;1009;51.436;6.972;2023-04-01T11:02:30;15.20;;;12.00;;
2011;SDS011;1009;51.436;6.972;2023-04-01T11:05:25;20.30;;;14.20;;
2011;SDS011;1009;51.436;6.972;2023-04-01T11:14:42;19.53;;;15.13;;
2011;SDS011;1009;51.436;6.972;2023-04-01T11:17:57;17.20;;;13.10;;
2011;SDS011;1009;51.436;6.972;2023-04-01T11:20:44;18.50;;;13.23;;
2011;SDS011;1009;51.436;6.972;2023-04-01T11:23:33;21.83;;;13.00;;
2011;SDS011;1009;51.436;6.972;2023-04-01T11:26:13;20.97;;;13.90;;
2011;SDS011;1009;51.436;6.972;2023-04-01T11:29:09;22.60;;;14.03;;
2011;SDS011;1009;51.436;6.972;2023-04-01T11:32:01;19.20;;;14.40;;
2011;SDS011;1009;51.436;6.972;2023-04-01T11:34:41;19.80;;;13.40;;
2011;SDS011;1009;51.436;6.972;2023-04-01T11:37:20;19.77;;;14.03;;
2011;SDS011;1009;51.436;6.972;2023-04-01T11:39:59;16.47;;;13.17;;
2011;SDS011;1009;51.436;6.972;2023-04-01T11:42:35;20.33;;;12.53;;
2011;SDS011;1009;51.436;6.972;2023-04-01T11:45:21;17.60;;;12.93;;
2011;SDS011;1009;51.436;6.972;2023-04-01T11:51:04;19.53;;;13.30;;
2011;SDS011;1009;51.436;6.972;2023-04-01T11:53:49;17.10;;;12.93;;
2011;SDS011;1009;51.436;6.972;2023-04-01T11:56:36;17.20;;;13.23;;
2011;SDS011;1009;51.436;6.972;2023-04-01T11:59:27;17.50;;;12.63;;
2011;SDS011;1009;51.436;6.972;2023-04-01T12:02:11;17.43;;;12.70;;
2011;SDS011;1009;51.436;6.972;2023-04-01T12:04:53;16.97;;;13.20;;
2011;SDS011;1009;51.436;6.972;2023-04-01T12:07:31;18.50;;;12.63;;
2011;SDS011;1009;51.436;6.972;2023-04-01T12:10:12;17.57;;;12.37;;
2011;SDS011;1009;51.436;6.972;2023-04-01T12:12:46;16.50;;;12.03;;
2011;SDS011;1009;51.436;6.972;2023-04-01T12:15:23;20.07;;;15.63;;
2011;SDS011;1009;51.436;6.972;2023-04-01T12:17:58;21.30;;;16.37;;
2011;SDS011;1009;51.436;6.972;2023-04-01T12:20:43;26.73;;;20.20;;
2011;SDS011;1009;51.436;6.972;2023-04-01T12:23:25;24.37;;;17.43;;
2011;SDS011;1009;51.436;6.972;2023-04-01T12:26:12;22.00;;;15.67;;
2011;SDS011;1009;51.436;6.972;2023-04-01T12:28:57;22.10;;;16.20;;
2011;SDS011;1009;51.436;6.972;2023-04-01T12:31:37;20.63;;;15.50;;
2011;SDS011;1009;51.436;6.972;2023-04-01T12:34:14;17.57;;;14.03;;
2011;SDS011;1009;51.436;6.972;2023-04-01T12:37:10;19.00;;;15.97;;
2011;SDS011;1009;51.436;6.972;2023-04-01T12:46:05;16.27;;;14.10;;
2011;SDS011;1009;51.436;6.972;2023-04-01T12:49:01;17.73;;;12.23;;
2011;SDS011;1009;51.436;6.972;2023-04-01T12:51:51;17.97;;;13.70;;
2011;SDS011;1009;51.436;6.972;2023-04-01T12:57:34;16.80;;;11.90;;
2011;SDS011;1009;51.436;6.972;2023-04-01T13:00:25;16.13;;;11.20;;
2011;SDS011;1009;51.436;6.972;2023-04-01T13:03:05;14.37;;;10.30;;
2011;SDS011;1009;51.436;6.972;2023-04-01T13:05:58;14.30;;;10.23;;
2011;SDS011;1009;51.436;6.972;2023-04-01T13:08:46;15.80;;;11.67;;
2011;SDS011;1009;51.436;6.972;2023-04-01T13:11:20;12.63;;;9.23;;
2011;SDS011;1009;51.436;6.972;2023-04-01T13:14:07;12.30;;;9.33;;
2011;SDS011;1009;51.436;6.972;2023-04-01T13:16:52;13.93;;;9.70;;
2011;SDS011;1009;51.436;6.972;2023-04-01T13:19:25;11.67;;;9.00;;
2011;SDS011;1009;51.436;6.972;2023-04-01T13:21:59;12.70;;;8.97;;
2011;SDS011;1009;51.436;6.972;2023-04-01T13:24:43;13.30;;;9.37;;
2011;SDS011;1009;51.436;6.972;2023-04-01T13:27:17;10.00;;;8.13;;
2011;SDS011;1009;51.436;6.972;2023-04-01T13:29:53;13.43;;;8.97;;
2011;SDS011;1009;51.436;6.972;2023-04-01T13:32:39;13.57;;;8.60;;
2011;SDS011;1009;51.436;6.972;2023-04-01T13:35:23;13.70;;;9.27;;
2011;SDS011;1009;51.436;6.972;2023-04-01T13:38:04;13.97;;;9.13;;
2011;SDS011;1009;51.436;6.972;2023-04-01T13:40:58;13.47;;;9.60;;
2011;SDS011;1009;51.436;6.972;2023-04-01T13:43:34;13.23;;;9.00;;
2011;SDS011;1009;51.436;6.972;2023-04-01T13:49:09;11.53;;;8.23;;
2011;SDS011;1009;51.436;6.972;2023-04-01T13:51:55;11.10;;;8.27;;
2011;SDS011;1009;51.436;6.972;2023-04-01T13:54:47;9.77;;;7.53;;
2011;SDS011;1009;51.436;6.972;2023-04-01T13:57:34;12.13;;;8.40;;
2011;SDS011;1009;51.436;6.972;2023-04-01T14:00:23;10.90;;;7.70;;
2011;SDS011;1009;51.436;6.972;2023-04-01T14:03:21;15.23;;;9.20;;
2011;SDS011;1009;51.436;6.972;2023-04-01T14:08:56;17.40;;;9.73;;
2011;SDS011;1009;51.436;6.972;2023-04-01T14:11:38;12.60;;;10.07;;
2011;SDS011;1009;51.436;6.972;2023-04-01T14:14:13;13.50;;;10.80;;
2011;SDS011;1009;51.436;6.972;2023-04-01T14:16:55;15.23;;;10.63;;
2011;SDS011;1009;51.436;6.972;2023-04-01T14:19:48;15.70;;;11.30;;
2011;SDS011;1009;51.436;6.972;2023-04-01T14:22:32;14.20;;;11.30;;
2011;SDS011;1009;51.436;6.972;2023-04-01T14:25:12;15.30;;;10.93;;
2011;SDS011;1009;51.436;6.972;2023-04-01T14:27:54;16.00;;;10.40;;
2011;SDS011;1009;51.436;6.972;2023-04-01T14:30:35;15.90;;;11.00;;
2011;SDS011;1009;51.436;6.972;2023-04-01T14:33:25;14.97;;;10.87;;
2011;SDS011;1009;51.436;6.972;2023-04-01T14:36:08;15.80;;;11.87;;
2011;SDS011;1009;51.436;6.972;2023-04-01T14:38:56;20.03;;;11.20;;
2011;SDS011;1009;51.436;6.972;2023-04-01T14:41:40;13.90;;;11.50;;
2011;SDS011;1009;51.436;6.972;2023-04-01T14:44:30;15.43;;;11.63;;
2011;SDS011;1009;51.436;6.972;2023-04-01T14:50:12;19.53;;;12.00;;
2011;SDS011;1009;51.436;6.972;2023-04-01T14:52:43;17.40;;;12.40;;
2011;SDS011;1009;51.436;6.972;2023-04-01T14:55:21;16.47;;;11.93;;
2011;SDS011;1009;51.436;6.972;2023-04-01T14:57:58;14.97;;;11.10;;
2011;SDS011;1009;51.436;6.972;2023-04-01T15:00:37;12.80;;;9.20;;
2011;SDS011;1009;51.436;6.972;2023-04-01T15:03:14;13.43;;;9.40;;
2011;SDS011;1009;51.436;6.972;2023-04-01T15:05:49;13.80;;;9.60;;
2011;SDS011;1009;51.436;6.972;2023-04-01T15:08:22;13.57;;;10.87;;
2011;SDS011;1009;51.436;6.972;2023-04-01T15:11:10;14.57;;;10.40;;
2011;SDS011;1009;51.436;6.972;2023-04-01T15:17:05;16.37;;;10.73;;
2011;SDS011;1009;51.436;6.972;2023-04-01T15:20:04;13.57;;;10.93;;
2011;SDS011;1009;51.436;6.972;2023-04-01T15:22:48;13.13;;;10.70;;
2011;SDS011;1009;51.436;6.972;2023-04-01T15:25:32;14.60;;;11.17;;
2011;SDS011;1009;51.436;6.972;2023-04-01T15:28:13;12.67;;;9.17;;
2011;SDS011;1009;51.436;6.972;2023-04-01T15:30:52;11.80;;;8.83;;
2011;SDS011;1009;51.436;6.972;2023-04-01T15:36:25;10.37;;;7.73;;
2011;SDS011;1009;51.436;6.972;2023-04-01T15:39:01;9.23;;;7.83;;
2011;SDS011;1009;51.436;6.972;2023-04-01T15:41:40;9.97;;;7.20;;
2011;SDS011;1009;51.436;6.972;2023-04-01T15:44:39;10.33;;;6.93;;
2011;SDS011;1009;51.436;6.972;2023-04-01T15:47:25;9.83;;;7.30;;
2011;SDS011;1009;51.436;6.972;2023-04-01T15:50:19;10.07;;;7.53;;
2011;SDS011;1009;51.436;6.972;2023-04-01T15:53:09;8.83;;;6.50;;
2011;SDS011;1009;51.436;6.972;2023-04-01T15:55:44;7.83;;;6.33;;
2011;SDS011;1009;51.436;6.972;2023-04-01T15:58:21;7.00;;;6.27;;
2011;SDS011;1009;51.436;6.972;2023-04-01T16:01:14;10.80;;;6.60;;
2011;SDS011;1009;51.436;6.972;2023-04-01T16:03:51;7.80;;;6.50;;
2011;SDS011;1009;51.436;6.972;2023-04-01T16:09:18;7.87;;;6.67;;
2011;SDS011;1009;51.436;6.972;2023-04-01T16:11:53;7.63;;;6.33;;
2011;SDS011;1009;51.436;6.972;2023-04-01T16:14:30;8.87;;;7.07;;
2011;SDS011;1009;51.436;6.972;2023-04-01T16:17:12;7.63;;;6.80;;
2011;SDS011;1009;51.436;6.972;2023-04-01T16:19:53;10.37;;;7.90;;
2011;SDS011;1009;51.436;6.972;2023-04-01T16:22:29;9.17;;;7.50;;
2011;SDS011;1009;51.436;6.972;2023-04-01T16:25:05;9.77;;;8.17;;
2011;SDS011;1009;51.436;6.972;2023-04-01T16:27:46;10.67;;;9.20;;
2011;SDS011;1009;51.436;6.972;2023-04-01T16:30:23;10.60;;;9.47;;
2011;SDS011;1009;51.436;6.972;2023-04-01T16:33:00;11.10;;;9.90;;
2011;SDS011;1009;51.436;6.972;2023-04-01T16:35:33;13.97;;;11.40;;
2011;SDS011;1009;51.436;6.972;2023-04-01T16:38:09;11.60;;;9.70;;
2011;SDS011;1009;51.436;6.972;2023-04-01T16:40:42;14.20;;;10.87;;
2011;SDS011;1009;51.436;6.972;2023-04-01T16:43:16;14.10;;;10.60;;
2011;SDS011;1009;51.436;6.972;2023-04-01T16:45:53;12.60;;;10.50;;
2011;SDS011;1009;51.436;6.972;2023-04-01T16:48:29;15.57;;;10.73;;
2011;SDS011;1009;51.436;6.972;2023-04-01T16:51:12;11.47;;;9.23;;
2011;SDS011;1009;51.436;6.972;2023-04-01T16:53:43;11.77;;;9.10;;
2011;SDS011;1009;51.436;6.972;2023-04-01T16:56:14;12.80;;;9.67;;
2011;SDS011;1009;51.436;6.972;2023-04-01T16:58:56;11.73;;;8.73;;
2011;SDS011;1009;51.436;6.972;2023-04-01T17:01:29;9.83;;;8.17;;
2011;SDS011;1009;51.436;6.972;2023-04-01T17:04:04;11.30;;;9.30;;
2011;SDS011;1009;51.436;6.972;2023-04-01T17:06:39;16.60;;;10.27;;
2011;SDS011;1009;51.436;6.972;2023-04-01T17:09:15;14.03;;;9.73;;
2011;SDS011;1009;51.436;6.972;2023-04-01T17:11:57;15.10;;;8.77;;
2011;SDS011;1009;51.436;6.972;2023-04-01T17:14:32;11.97;;;10.67;;
2011;SDS011;1009;51.436;6.972;2023-04-01T17:17:12;15.93;;;11.13;;
2011;SDS011;1009;51.436;6.972;2023-04-01T17:19:57;17.50;;;11.03;;